createdAt,value
2022-09-02T00:01:43.646Z,29.80
2022-09-02T00:04:15.933Z,29.70
2022-09-02T00:06:46.017Z,29.80
2022-09-02T00:09:17.130Z,29.80
2022-09-02T00:11:47.097Z,29.70
2022-09-02T00:14:22.965Z,29.70
2022-09-02T00:16:54.446Z,29.80
2022-09-02T00:19:25.656Z,29.80
2022-09-02T00:21:55.855Z,29.80
2022-09-02T00:24:25.864Z,30.00
2022-09-02T00:26:56.515Z,29.90
2022-09-02T00:29:26.643Z,30.00
2022-09-02T00:31:55.527Z,30.00
2022-09-02T00:34:24.729Z,29.90
2022-09-02T00:37:56.044Z,29.90
2022-09-02T00:40:24.645Z,29.80
2022-09-02T00:42:53.868Z,29.80
2022-09-02T00:45:23.098Z,29.80
2022-09-02T00:47:52.647Z,29.70
2022-09-02T00:50:25.443Z,29.80
2022-09-02T00:53:10.783Z,29.80
2022-09-02T00:55:45.831Z,29.70
2022-09-02T00:58:21.757Z,29.60
2022-09-02T01:00:53.445Z,29.60
2022-09-02T01:03:24.585Z,29.50
2022-09-02T01:05:54.947Z,29.50
2022-09-02T01:08:28.000Z,29.60
2022-09-02T01:10:57.600Z,29.50
2022-09-02T01:13:31.306Z,29.40
2022-09-02T01:16:12.648Z,29.40
2022-09-02T01:18:45.077Z,29.30
2022-09-02T01:21:14.142Z,29.30
2022-09-02T01:23:42.741Z,29.30
2022-09-02T01:26:11.577Z,29.30
2022-09-02T01:28:40.444Z,29.10
2022-09-02T01:31:08.949Z,28.90
2022-09-02T01:33:37.398Z,28.90
2022-09-02T01:36:06.659Z,28.90
2022-09-02T01:38:35.030Z,28.90
2022-09-02T01:41:03.472Z,28.70
2022-09-02T01:43:31.967Z,28.70
2022-09-02T01:46:00.922Z,28.50
2022-09-02T01:48:29.263Z,28.50
2022-09-02T01:51:01.671Z,28.40
2022-09-02T01:53:31.352Z,28.50
2022-09-02T01:55:59.790Z,28.40
2022-09-02T01:58:28.360Z,28.30
2022-09-02T02:00:56.944Z,28.10
2022-09-02T02:03:26.157Z,27.90
2022-09-02T02:05:54.604Z,27.80
2022-09-02T02:08:25.103Z,27.80
2022-09-02T02:10:53.490Z,27.80
2022-09-02T02:13:22.013Z,27.70
2022-09-02T02:15:50.483Z,27.50
2022-09-02T02:18:18.877Z,27.50
2022-09-02T02:20:47.394Z,27.30
2022-09-02T02:23:15.814Z,27.30
2022-09-02T02:25:44.359Z,27.20
2022-09-02T02:28:13.056Z,27.10
2022-09-02T02:30:41.503Z,27.00
2022-09-02T02:33:09.864Z,27.00
2022-09-02T02:35:38.424Z,26.90
2022-09-02T02:38:06.809Z,26.70
2022-09-02T02:40:35.369Z,26.70
2022-09-02T02:43:03.888Z,26.60
2022-09-02T02:45:32.544Z,26.60
2022-09-02T02:48:00.960Z,26.50
2022-09-02T02:50:29.418Z,26.30
2022-09-02T02:52:58.140Z,26.20
2022-09-02T02:55:27.122Z,26.10
2022-09-02T02:57:55.670Z,26.00
2022-09-02T03:00:27.166Z,25.90
2022-09-02T03:03:03.378Z,25.80
2022-09-02T03:05:32.129Z,25.70
2022-09-02T03:08:00.583Z,25.60
2022-09-02T03:10:29.058Z,25.60
2022-09-02T03:12:57.635Z,25.50
2022-09-02T03:15:26.025Z,25.50
2022-09-02T03:17:55.620Z,25.40
2022-09-02T03:20:25.126Z,25.20
2022-09-02T03:22:57.272Z,25.10
2022-09-02T03:25:29.551Z,25.10
2022-09-02T03:28:01.039Z,24.90
2022-09-02T03:30:31.717Z,24.90
2022-09-02T03:33:04.260Z,24.90
2022-09-02T03:35:35.438Z,24.70
2022-09-02T03:38:03.848Z,24.60
2022-09-02T03:40:33.336Z,24.50
2022-09-02T03:43:03.393Z,24.50
2022-09-02T03:45:32.944Z,24.50
2022-09-02T03:48:01.756Z,24.40
2022-09-02T03:50:40.762Z,24.30
2022-09-02T03:53:18.059Z,24.20
2022-09-02T03:55:50.602Z,24.00
2022-09-02T03:58:20.064Z,23.80
2022-09-02T04:00:54.816Z,23.80
2022-09-02T04:03:23.835Z,23.80
2022-09-02T04:05:53.209Z,23.70
2022-09-02T04:08:22.128Z,23.70
2022-09-02T04:10:50.945Z,23.60
2022-09-02T04:13:19.854Z,23.50
2022-09-02T04:15:49.980Z,23.50
2022-09-02T04:18:19.065Z,23.50
2022-09-02T04:20:47.721Z,23.40
2022-09-02T04:23:16.577Z,23.20
2022-09-02T04:25:45.468Z,23.20
2022-09-02T04:28:13.899Z,23.10
2022-09-02T04:30:43.983Z,23.00
2022-09-02T04:33:13.069Z,22.90
2022-09-02T04:35:43.771Z,22.90
2022-09-02T04:38:13.115Z,22.80
2022-09-02T04:40:43.976Z,22.70
2022-09-02T04:43:12.904Z,22.60
2022-09-02T04:45:46.330Z,22.70
2022-09-02T04:48:14.836Z,22.60
2022-09-02T04:50:44.303Z,22.60
2022-09-02T04:53:13.670Z,22.40
2022-09-02T04:55:43.133Z,22.40
2022-09-02T04:58:12.192Z,22.30
2022-09-02T05:00:42.982Z,22.20
2022-09-02T05:03:13.911Z,22.10
2022-09-02T05:05:42.288Z,22.10
2022-09-02T05:08:13.964Z,22.10
2022-09-02T05:10:42.573Z,22.10
2022-09-02T05:13:11.027Z,22.00
2022-09-02T05:15:45.858Z,21.90
2022-09-02T05:18:14.331Z,21.80
2022-09-02T05:20:44.535Z,21.80
2022-09-02T05:23:14.497Z,21.90
2022-09-02T05:25:43.070Z,21.80
2022-09-02T05:28:12.276Z,21.80
2022-09-02T05:30:42.675Z,21.80
2022-09-02T05:33:13.439Z,21.80
2022-09-02T05:35:45.474Z,21.80
2022-09-02T05:38:15.700Z,21.80
2022-09-02T05:40:44.213Z,21.80
2022-09-02T05:43:12.740Z,21.70
2022-09-02T05:45:41.680Z,21.70
2022-09-02T05:48:28.440Z,21.70
2022-09-02T05:50:57.677Z,21.70
2022-09-02T05:53:27.669Z,21.40
2022-09-02T05:55:56.368Z,21.40
2022-09-02T05:58:25.632Z,21.40
2022-09-02T06:00:54.320Z,21.30
2022-09-02T06:03:23.072Z,21.30
2022-09-02T06:05:56.728Z,21.10
2022-09-02T06:08:25.987Z,21.10
2022-09-02T06:10:54.417Z,21.10
2022-09-02T06:13:23.401Z,20.90
2022-09-02T06:15:53.222Z,20.90
2022-09-02T06:18:21.749Z,20.80
2022-09-02T06:20:51.873Z,20.70
2022-09-02T06:23:20.586Z,20.70
2022-09-02T06:25:50.551Z,20.70
2022-09-02T06:28:19.059Z,20.70
2022-09-02T06:30:49.523Z,20.70
2022-09-02T06:33:18.486Z,20.70
2022-09-02T06:35:47.637Z,20.60
2022-09-02T06:38:17.005Z,20.50
2022-09-02T06:40:56.281Z,20.50
2022-09-02T06:43:24.862Z,20.40
2022-09-02T06:45:53.421Z,20.50
2022-09-02T06:48:21.911Z,20.30
2022-09-02T06:50:50.445Z,20.20
2022-09-02T06:53:20.162Z,20.20
2022-09-02T06:55:48.790Z,20.30
2022-09-02T06:58:17.466Z,20.10
2022-09-02T07:00:46.365Z,20.10
2022-09-02T07:03:33.491Z,20.00
2022-09-02T07:06:10.436Z,20.00
2022-09-02T07:08:40.562Z,20.10
2022-09-02T07:11:16.739Z,20.20
2022-09-02T07:13:45.370Z,20.20
2022-09-02T07:16:18.470Z,20.20
2022-09-02T07:18:55.693Z,20.30
2022-09-02T07:21:24.329Z,20.40
2022-09-02T07:23:52.881Z,20.40
2022-09-02T07:26:21.424Z,20.40
2022-09-02T07:28:50.016Z,20.50
2022-09-02T07:31:18.989Z,20.50
2022-09-02T07:33:50.122Z,20.50
2022-09-02T07:36:22.387Z,20.60
2022-09-02T07:38:51.034Z,20.50
2022-09-02T07:41:20.089Z,20.50
2022-09-02T07:43:51.127Z,20.50
2022-09-02T07:46:20.522Z,20.60
2022-09-02T07:48:52.596Z,20.60
2022-09-02T07:51:21.577Z,20.50
2022-09-02T07:53:51.132Z,20.30
2022-09-02T07:56:19.952Z,20.40
2022-09-02T07:58:48.804Z,20.40
2022-09-02T08:01:22.624Z,20.30
2022-09-02T08:03:52.712Z,20.20
2022-09-02T08:06:34.602Z,20.20
2022-09-02T08:09:07.677Z,20.20
2022-09-02T08:11:39.793Z,20.10
2022-09-02T08:14:12.228Z,20.00
2022-09-02T08:16:41.452Z,20.00
2022-09-02T08:19:10.127Z,20.00
2022-09-02T08:21:38.566Z,20.00
2022-09-02T08:24:07.017Z,20.00
2022-09-02T08:26:38.178Z,19.90
2022-09-02T08:29:08.111Z,19.90
2022-09-02T08:31:39.085Z,19.80
2022-09-02T08:34:07.661Z,19.70
2022-09-02T08:36:36.252Z,19.80
2022-09-02T08:39:06.092Z,19.80
2022-09-02T08:42:11.057Z,19.80
2022-09-02T08:44:40.836Z,19.90
2022-09-02T08:47:17.308Z,19.70
2022-09-02T08:49:51.963Z,19.60
2022-09-02T08:52:31.075Z,19.60
2022-09-02T08:54:59.661Z,19.60
2022-09-02T08:57:28.457Z,19.60
2022-09-02T08:59:59.506Z,19.60
2022-09-02T09:02:31.197Z,19.60
2022-09-02T09:05:07.101Z,19.60
2022-09-02T09:07:47.651Z,19.50
2022-09-02T09:10:57.727Z,19.50
2022-09-02T09:14:01.848Z,19.50
2022-09-02T09:16:47.650Z,19.40
2022-09-02T09:19:47.825Z,19.50
2022-09-02T09:22:20.660Z,19.50
2022-09-02T09:24:51.352Z,19.50
2022-09-02T09:27:22.694Z,19.40
2022-09-02T09:29:52.888Z,19.40
2022-09-02T09:32:29.540Z,19.30
2022-09-02T09:35:09.361Z,19.20
2022-09-02T09:37:41.582Z,19.10
2022-09-02T09:40:22.490Z,19.10
2022-09-02T09:42:59.799Z,19.10
2022-09-02T09:45:43.238Z,18.90
2022-09-02T09:48:17.759Z,18.90
2022-09-02T09:51:08.895Z,18.80
2022-09-02T09:53:38.697Z,18.80
2022-09-02T09:56:24.109Z,18.70
2022-09-02T09:58:52.919Z,18.60
2022-09-02T10:01:36.687Z,18.70
2022-09-02T10:04:42.793Z,18.60
2022-09-02T10:07:14.139Z,18.60
2022-09-02T10:09:43.455Z,18.50
2022-09-02T10:12:14.812Z,18.40
2022-09-02T10:14:48.478Z,18.50
2022-09-02T10:17:45.931Z,18.50
2022-09-02T10:20:53.160Z,18.50
2022-09-02T10:23:44.863Z,18.40
2022-09-02T10:26:49.961Z,18.40
2022-09-02T10:29:40.319Z,18.40
2022-09-02T10:32:23.141Z,18.40
2022-09-02T10:35:03.502Z,18.40
2022-09-02T10:37:57.059Z,18.30
2022-09-02T10:40:35.936Z,18.30
2022-09-02T10:43:08.989Z,18.20
2022-09-02T10:45:53.842Z,18.20
2022-09-02T10:48:43.827Z,18.20
2022-09-02T10:51:55.158Z,18.20
2022-09-02T10:54:58.165Z,18.20
2022-09-02T10:57:36.243Z,18.20
2022-09-02T11:00:15.314Z,18.20
2022-09-02T11:02:57.082Z,18.20
2022-09-02T11:05:40.821Z,18.20
2022-09-02T11:08:34.915Z,18.20
2022-09-02T11:11:27.703Z,18.10
2022-09-02T11:14:11.481Z,18.00
2022-09-02T11:17:01.003Z,18.10
2022-09-02T11:19:50.465Z,18.00
2022-09-02T11:22:55.759Z,18.00
2022-09-02T11:25:36.355Z,18.00
2022-09-02T11:28:29.441Z,17.90
2022-09-02T11:31:21.902Z,18.00
2022-09-02T11:34:12.841Z,18.00
2022-09-02T11:36:42.533Z,17.90
2022-09-02T11:39:36.452Z,17.80
2022-09-02T11:42:25.488Z,17.80
2022-09-02T11:45:12.219Z,17.70
2022-09-02T11:47:57.316Z,17.70
2022-09-02T11:50:43.265Z,17.70
2022-09-02T11:53:40.674Z,17.80
2022-09-02T11:56:20.577Z,17.80
2022-09-02T11:58:53.824Z,17.90
2022-09-02T12:01:33.294Z,18.00
2022-09-02T12:07:09.426Z,17.90
2022-09-02T12:12:37.384Z,17.70
2022-09-02T12:15:06.249Z,17.70
2022-09-02T12:17:38.951Z,17.60
2022-09-02T12:20:10.470Z,17.60
2022-09-02T12:22:40.913Z,17.40
2022-09-02T12:25:29.291Z,17.50
2022-09-02T12:28:23.907Z,17.50
2022-09-02T12:31:06.170Z,17.40
2022-09-02T12:33:34.661Z,17.30
2022-09-02T12:36:06.469Z,17.20
2022-09-02T12:38:35.724Z,17.20
2022-09-02T12:41:12.996Z,17.20
2022-09-02T12:44:11.832Z,17.20
2022-09-02T12:46:51.290Z,17.10
2022-09-02T12:49:43.972Z,17.10
2022-09-02T12:52:37.033Z,17.00
2022-09-02T12:55:30.641Z,16.90
2022-09-02T12:58:20.818Z,17.10
2022-09-02T13:01:24.884Z,17.10
2022-09-02T13:04:22.905Z,16.90
2022-09-02T13:06:54.931Z,16.90
2022-09-02T13:09:56.936Z,17.00
2022-09-02T13:12:51.076Z,17.00
2022-09-02T13:15:54.909Z,17.00
2022-09-02T13:19:00.519Z,16.90
2022-09-02T13:21:42.056Z,17.00
2022-09-02T13:24:14.275Z,17.00
2022-09-02T13:27:12.029Z,16.90
2022-09-02T13:30:11.942Z,17.00
2022-09-02T13:32:40.451Z,16.80
2022-09-02T13:35:23.786Z,16.90
2022-09-02T13:38:00.643Z,16.80
2022-09-02T13:40:35.059Z,16.80
2022-09-02T13:43:13.936Z,16.90
2022-09-02T13:45:43.796Z,16.90
2022-09-02T13:48:26.005Z,16.90
2022-09-02T13:51:01.046Z,16.90
2022-09-02T13:53:45.426Z,16.80
2022-09-02T13:56:29.248Z,16.60
2022-09-02T13:58:57.964Z,16.70
2022-09-02T14:01:31.179Z,16.80
2022-09-02T14:04:02.887Z,16.80
2022-09-02T14:06:38.338Z,16.80
2022-09-02T14:09:12.201Z,16.80
2022-09-02T14:11:46.571Z,16.90
2022-09-02T14:14:21.101Z,17.10
2022-09-02T14:16:49.548Z,17.10
2022-09-02T14:19:25.281Z,17.20
2022-09-02T14:21:59.463Z,17.30
2022-09-02T14:24:38.210Z,17.20
2022-09-02T14:27:19.367Z,17.30
2022-09-02T14:29:51.294Z,17.30
2022-09-02T14:32:28.559Z,17.50
2022-09-02T14:35:18.219Z,17.70
2022-09-02T14:37:58.544Z,17.80
2022-09-02T14:40:38.430Z,17.90
2022-09-02T14:43:15.706Z,18.00
2022-09-02T14:45:49.504Z,18.10
2022-09-02T14:48:26.472Z,18.30
2022-09-02T14:51:04.198Z,18.40
2022-09-02T14:53:38.460Z,18.50
2022-09-02T14:56:07.610Z,18.70
2022-09-02T14:58:36.011Z,18.90
2022-09-02T15:01:05.491Z,19.00
2022-09-02T15:03:39.420Z,19.20
2022-09-02T15:06:10.842Z,19.40
2022-09-02T15:08:41.688Z,19.50
2022-09-02T15:11:10.156Z,19.40
2022-09-02T15:13:38.557Z,19.20
2022-09-02T15:16:07.053Z,19.20
2022-09-02T15:18:35.520Z,19.40
2022-09-02T15:21:04.319Z,19.60
2022-09-02T15:23:34.740Z,19.70
2022-09-02T15:26:03.978Z,19.90
2022-09-02T15:28:32.515Z,19.90
2022-09-02T15:31:02.308Z,19.90
2022-09-02T15:33:31.236Z,19.90
2022-09-02T15:36:11.694Z,20.20
2022-09-02T15:38:44.107Z,20.20
2022-09-02T15:41:27.357Z,20.20
2022-09-02T15:43:56.261Z,20.40
2022-09-02T15:46:26.627Z,20.60
2022-09-02T15:49:01.675Z,21.10
2022-09-02T15:51:31.120Z,22.10
2022-09-02T15:54:04.808Z,23.30
2022-09-02T15:56:34.533Z,23.80
2022-09-02T15:59:05.308Z,25.30
2022-09-02T16:01:34.923Z,25.60
2022-09-02T16:04:03.793Z,26.90
2022-09-02T16:06:35.164Z,27.70
2022-09-02T16:09:04.704Z,28.20
2022-09-02T16:11:33.125Z,28.80
2022-09-02T16:14:04.520Z,29.10
2022-09-02T16:16:34.313Z,29.40
2022-09-02T16:19:04.019Z,28.90
2022-09-02T16:21:32.637Z,29.90
2022-09-02T16:24:01.093Z,28.60
2022-09-02T16:26:31.652Z,28.00
2022-09-02T16:29:02.475Z,27.50
2022-09-02T16:31:32.345Z,27.10
2022-09-02T16:34:05.503Z,26.60
2022-09-02T16:36:36.404Z,25.60
2022-09-02T16:39:06.465Z,25.40
2022-09-02T16:41:44.657Z,24.80
2022-09-02T16:44:22.064Z,24.50
2022-09-02T16:46:52.392Z,24.20
2022-09-02T16:49:23.378Z,23.80
2022-09-02T16:51:58.118Z,23.90
2022-09-02T16:54:30.947Z,23.70
2022-09-02T16:57:00.932Z,23.30
2022-09-02T16:59:29.755Z,23.40
2022-09-02T17:01:58.629Z,24.00
2022-09-02T17:04:27.065Z,24.60
2022-09-02T17:06:55.537Z,25.90
2022-09-02T17:09:23.968Z,26.60
2022-09-02T17:11:54.252Z,26.70
2022-09-02T17:14:22.946Z,27.70
2022-09-02T17:16:52.797Z,28.80
2022-09-02T17:19:22.360Z,27.80
2022-09-02T17:21:53.241Z,28.00
2022-09-02T17:24:24.840Z,27.90
2022-09-02T17:26:56.697Z,27.40
2022-09-02T17:32:20.258Z,26.30
2022-09-02T17:34:51.598Z,25.90
2022-09-02T17:37:21.039Z,25.60
2022-09-02T17:39:50.498Z,24.80
2022-09-02T17:42:19.218Z,24.20
2022-09-02T17:44:47.822Z,24.50
2022-09-02T17:47:19.438Z,23.90
2022-09-02T17:49:49.191Z,23.90
2022-09-02T17:52:26.672Z,23.70
2022-09-02T17:54:55.394Z,23.70
2022-09-02T17:57:45.679Z,23.80
2022-09-02T18:00:17.227Z,23.70
2022-09-02T18:03:12.453Z,23.90
2022-09-02T18:05:59.060Z,23.80
2022-09-02T18:08:27.556Z,23.30
2022-09-02T18:11:05.231Z,23.60
2022-09-02T18:13:33.589Z,24.00
2022-09-02T18:16:24.105Z,23.70
2022-09-02T18:19:14.353Z,23.70
2022-09-02T18:21:52.769Z,23.70
2022-09-02T18:24:41.453Z,24.30
2022-09-02T18:27:27.414Z,24.70
2022-09-02T18:30:13.607Z,24.70
2022-09-02T18:33:02.650Z,24.80
2022-09-02T18:35:55.661Z,25.00
2022-09-02T18:38:30.124Z,25.40
2022-09-02T18:41:00.547Z,25.70
2022-09-02T18:43:38.018Z,25.70
2022-09-02T18:46:08.159Z,25.80
2022-09-02T18:48:37.843Z,26.10
2022-09-02T18:51:41.820Z,25.60
2022-09-02T18:54:23.587Z,25.40
2022-09-02T18:57:02.481Z,25.40
2022-09-02T18:59:52.218Z,25.70
2022-09-02T19:02:32.664Z,25.70
2022-09-02T19:05:02.181Z,25.40
2022-09-02T19:07:49.022Z,25.10
2022-09-02T19:10:17.409Z,25.10
2022-09-02T19:12:46.157Z,25.10
2022-09-02T19:15:17.462Z,25.10
2022-09-02T19:17:45.870Z,25.10
2022-09-02T19:20:14.818Z,25.40
2022-09-02T19:22:49.073Z,25.20
2022-09-02T19:25:21.947Z,25.20
2022-09-02T19:27:53.809Z,24.90
2022-09-02T19:30:23.755Z,25.00
2022-09-02T19:32:55.715Z,25.30
2022-09-02T19:35:28.253Z,25.60
2022-09-02T19:37:57.073Z,25.90
2022-09-02T19:40:29.274Z,26.30
2022-09-02T19:42:57.789Z,26.40
2022-09-02T19:45:29.909Z,26.70
2022-09-02T19:48:09.291Z,26.80
2022-09-02T19:50:43.039Z,26.80
2022-09-02T19:53:17.004Z,26.90
2022-09-02T19:55:45.778Z,26.70
2022-09-02T19:58:14.631Z,26.50
2022-09-02T20:00:43.631Z,26.70
2022-09-02T20:03:12.720Z,27.00
2022-09-02T20:05:42.223Z,26.80
2022-09-02T20:08:10.721Z,26.90
2022-09-02T20:10:40.398Z,26.40
2022-09-02T20:13:14.420Z,26.60
2022-09-02T20:15:42.839Z,26.80
2022-09-02T20:18:16.303Z,26.90
2022-09-02T20:20:47.348Z,26.80
2022-09-02T20:23:18.662Z,26.70
2022-09-02T20:26:08.203Z,26.80
2022-09-02T20:28:58.333Z,26.80
2022-09-02T20:31:53.466Z,27.00
2022-09-02T20:34:43.155Z,27.20
2022-09-02T20:37:30.143Z,27.10
2022-09-02T20:40:25.738Z,27.10
2022-09-02T20:43:12.819Z,27.30
2022-09-02T20:45:46.156Z,26.90
2022-09-02T20:49:00.266Z,27.30
2022-09-02T20:52:01.609Z,27.60
2022-09-02T20:54:32.962Z,27.30
2022-09-02T20:57:04.852Z,27.60
2022-09-02T20:59:53.416Z,27.50
2022-09-02T21:02:28.835Z,27.60
2022-09-02T21:05:22.139Z,27.70
2022-09-02T21:08:02.252Z,27.90
2022-09-02T21:10:43.949Z,28.00
2022-09-02T21:13:21.546Z,27.90
2022-09-02T21:15:56.583Z,28.20
2022-09-02T21:18:55.695Z,28.20
2022-09-02T21:21:35.520Z,28.20
2022-09-02T21:24:20.449Z,28.30
2022-09-02T21:27:01.911Z,28.50
2022-09-02T21:30:04.169Z,28.50
2022-09-02T21:32:41.265Z,28.70
2022-09-02T21:35:21.252Z,28.70
2022-09-02T21:37:53.973Z,28.70
2022-09-02T21:40:26.443Z,28.80
2022-09-02T21:43:15.840Z,28.60
2022-09-02T21:45:59.184Z,28.70
2022-09-02T21:48:33.087Z,28.60
2022-09-02T21:51:09.509Z,28.90
2022-09-02T21:54:02.846Z,28.90
2022-09-02T21:56:58.502Z,28.90
2022-09-02T21:59:48.876Z,28.70
2022-09-02T22:02:53.295Z,29.10
2022-09-02T22:05:40.156Z,29.20
2022-09-02T22:08:24.356Z,29.00
2022-09-02T22:11:11.727Z,29.10
2022-09-02T22:13:42.725Z,29.50
2022-09-02T22:16:40.183Z,29.30
2022-09-02T22:19:10.125Z,29.40
2022-09-02T22:21:56.006Z,29.50
2022-09-02T22:24:29.396Z,29.60
2022-09-02T22:27:07.224Z,29.50
2022-09-02T22:29:55.747Z,29.60
2022-09-02T22:36:15.490Z,29.80
2022-09-02T22:38:50.103Z,29.90
2022-09-02T22:41:21.369Z,29.90
2022-09-02T22:44:10.730Z,30.00
2022-09-02T22:47:00.291Z,30.10
2022-09-02T22:49:50.853Z,30.10
2022-09-02T22:52:55.823Z,30.40
2022-09-02T22:55:47.269Z,30.40
2022-09-02T22:58:42.126Z,30.50
2022-09-02T23:01:47.571Z,30.60
2022-09-02T23:04:37.048Z,30.50
2022-09-02T23:07:06.195Z,30.50
2022-09-02T23:09:38.709Z,30.70
2022-09-02T23:12:14.398Z,30.80
2022-09-02T23:15:09.762Z,30.60
2022-09-02T23:18:02.308Z,30.70
2022-09-02T23:20:48.997Z,30.90
2022-09-02T23:23:32.498Z,30.70
2022-09-02T23:26:20.689Z,30.70
2022-09-02T23:29:00.931Z,30.90
2022-09-02T23:32:24.370Z,31.10
2022-09-02T23:35:00.275Z,31.20
2022-09-02T23:38:01.067Z,31.40
2022-09-02T23:40:52.054Z,31.40
2022-09-02T23:43:20.845Z,31.40
2022-09-02T23:45:49.662Z,31.60
2022-09-02T23:48:29.584Z,31.90
2022-09-02T23:51:17.084Z,32.10
2022-09-02T23:54:04.766Z,32.20
2022-09-02T23:56:52.011Z,32.10
2022-09-02T23:59:53.587Z,32.10
